sensor_id;sensor_type;location;lat;lon;timestamp;pressure;altitude;pressure_sealevel;temperature;humidity
63903;BME280;50072;50.678;13.938;2023-02-03T00:01:08;100289.59;;;1.65;100.00
63903;BME280;50072;50.678;13.938;2023-02-03T00:03:40;100282.47;;;1.61;100.00
63903;BME280;50072;50.678;13.938;2023-02-03T00:06:12;100280.78;;;1.63;100.00
63903;BME280;50072;50.678;13.938;2023-02-03T00:08:39;100278.31;;;1.72;100.00
63903;BME280;50072;50.678;13.938;2023-02-03T00:11:09;100282.78;;;1.76;100.00
63903;BME280;50072;50.678;13.938;2023-02-03T00:13:41;100289.88;;;1.77;100.00
63903;BME280;50072;50.678;13.938;2023-02-03T00:16:09;100289.03;;;1.80;100.00
63903;BME280;50072;50.678;13.938;2023-02-03T00:18:40;100290.81;;;1.81;100.00
63903;BME280;50072;50.678;13.938;2023-02-03T00:21:09;100282.91;;;1.82;100.00
63903;BME280;50072;50.678;13.938;2023-02-03T00:23:41;100294.47;;;1.87;100.00
63903;BME280;50072;50.678;13.938;2023-02-03T00:26:13;100293.72;;;1.95;100.00
63903;BME280;50072;50.678;13.938;2023-02-03T00:28:39;100290.19;;;1.93;100.00
63903;BME280;50072;50.678;13.938;2023-02-03T00:31:23;100286.66;;;1.94;100.00
63903;BME280;50072;50.678;13.938;2023-02-03T00:34:01;100285.84;;;1.98;100.00
63903;BME280;50072;50.678;13.938;2023-02-03T00:36:27;100285.00;;;1.99;100.00
63903;BME280;50072;50.678;13.938;2023-02-03T00:39:02;100288.50;;;1.98;100.00
63903;BME280;50072;50.678;13.938;2023-02-03T00:41:30;100288.56;;;2.01;100.00
63903;BME280;50072;50.678;13.938;2023-02-03T00:44:02;100283.34;;;2.04;100.00
63903;BME280;50072;50.678;13.938;2023-02-03T00:46:33;100291.28;;;2.04;100.00
63903;BME280;50072;50.678;13.938;2023-02-03T00:49:02;100283.25;;;1.99;100.00
63903;BME280;50072;50.678;13.938;2023-02-03T00:51:28;100275.53;;;2.09;100.00
63903;BME280;50072;50.678;13.938;2023-02-03T00:54:08;100275.34;;;2.01;100.00
63903;BME280;50072;50.678;13.938;2023-02-03T00:56:41;100268.28;;;1.98;100.00
63903;BME280;50072;50.678;13.938;2023-02-03T00:59:09;100270.31;;;2.13;100.00
63903;BME280;50072;50.678;13.938;2023-02-03T01:01:39;100270.31;;;2.13;100.00
63903;BME280;50072;50.678;13.938;2023-02-03T01:04:10;100265.72;;;2.03;100.00
63903;BME280;50072;50.678;13.938;2023-02-03T01:06:36;100254.22;;;2.01;100.00
63903;BME280;50072;50.678;13.938;2023-02-03T01:09:10;100258.41;;;1.89;100.00
63903;BME280;50072;50.678;13.938;2023-02-03T01:11:39;100261.16;;;1.93;100.00
63903;BME280;50072;50.678;13.938;2023-02-03T01:14:05;100250.59;;;1.93;100.00
63903;BME280;50072;50.678;13.938;2023-02-03T01:16:39;100251.66;;;2.02;100.00
63903;BME280;50072;50.678;13.938;2023-02-03T01:19:06;100244.59;;;2.03;100.00
63903;BME280;50072;50.678;13.938;2023-02-03T01:21:32;100238.59;;;2.10;100.00
63903;BME280;50072;50.678;13.938;2023-02-03T01:23:58;100232.50;;;2.14;100.00
63903;BME280;50072;50.678;13.938;2023-02-03T01:26:33;100233.34;;;2.13;100.00
63903;BME280;50072;50.678;13.938;2023-02-03T01:29:07;100223.63;;;2.12;100.00
63903;BME280;50072;50.678;13.938;2023-02-03T01:31:40;100214.59;;;1.98;100.00
63903;BME280;50072;50.678;13.938;2023-02-03T01:34:11;100201.44;;;2.01;100.00
63903;BME280;50072;50.678;13.938;2023-02-03T01:36:37;100200.47;;;1.96;100.00
63903;BME280;50072;50.678;13.938;2023-02-03T01:39:09;100192.53;;;1.94;100.00
63903;BME280;50072;50.678;13.938;2023-02-03T01:41:38;100188.94;;;1.90;100.00
63903;BME280;50072;50.678;13.938;2023-02-03T01:47:15;100177.63;;;1.98;100.00
63903;BME280;50072;50.678;13.938;2023-02-03T01:52:41;100168.59;;;1.85;100.00
63903;BME280;50072;50.678;13.938;2023-02-03T01:55:11;100157.00;;;1.77;100.00
63903;BME280;50072;50.678;13.938;2023-02-03T01:57:44;100154.34;;;1.75;100.00
63903;BME280;50072;50.678;13.938;2023-02-03T02:00:19;100141.91;;;1.68;100.00
63903;BME280;50072;50.678;13.938;2023-02-03T02:02:57;100143.44;;;1.57;100.00
63903;BME280;50072;50.678;13.938;2023-02-03T02:05:29;100153.03;;;1.51;100.00
63903;BME280;50072;50.678;13.938;2023-02-03T02:08:09;100153.94;;;1.53;100.00
63903;BME280;50072;50.678;13.938;2023-02-03T02:10:40;100153.94;;;1.53;100.00
63903;BME280;50072;50.678;13.938;2023-02-03T02:13:09;100148.50;;;1.44;100.00
63903;BME280;50072;50.678;13.938;2023-02-03T02:21:30;100123.31;;;1.60;100.00
63903;BME280;50072;50.678;13.938;2023-02-03T02:30:31;100111.63;;;1.47;100.00
63903;BME280;50072;50.678;13.938;2023-02-03T02:41:42;100089.84;;;1.59;100.00
63903;BME280;50072;50.678;13.938;2023-02-03T02:44:24;100097.75;;;1.58;99.90
63903;BME280;50072;50.678;13.938;2023-02-03T02:47:12;100077.34;;;1.47;100.00
63903;BME280;50072;50.678;13.938;2023-02-03T02:50:13;100091.41;;;1.48;100.00
63903;BME280;50072;50.678;13.938;2023-02-03T02:52:41;100082.50;;;1.41;100.00
63903;BME280;50072;50.678;13.938;2023-02-03T02:55:20;100088.63;;;1.40;100.00
63903;BME280;50072;50.678;13.938;2023-02-03T02:58:03;100084.16;;;1.36;100.00
63903;BME280;50072;50.678;13.938;2023-02-03T03:00:39;100069.13;;;1.32;100.00
63903;BME280;50072;50.678;13.938;2023-02-03T03:03:21;100072.78;;;1.38;100.00
63903;BME280;50072;50.678;13.938;2023-02-03T03:06:30;100075.38;;;1.35;100.00
63903;BME280;50072;50.678;13.938;2023-02-03T03:11:59;100062.78;;;1.20;100.00
63903;BME280;50072;50.678;13.938;2023-02-03T03:14:41;100049.66;;;1.24;100.00
63903;BME280;50072;50.678;13.938;2023-02-03T03:17:11;100043.47;;;1.22;100.00
63903;BME280;50072;50.678;13.938;2023-02-03T03:19:49;100048.88;;;1.29;100.00
63903;BME280;50072;50.678;13.938;2023-02-03T03:22:20;100045.31;;;1.26;100.00
63903;BME280;50072;50.678;13.938;2023-02-03T03:24:51;100035.59;;;1.25;100.00
63903;BME280;50072;50.678;13.938;2023-02-03T03:27:25;100035.56;;;1.22;100.00
63903;BME280;50072;50.678;13.938;2023-02-03T03:30:04;100029.53;;;1.29;100.00
63903;BME280;50072;50.678;13.938;2023-02-03T03:32:39;100030.28;;;1.22;100.00
63903;BME280;50072;50.678;13.938;2023-02-03T03:35:10;100030.16;;;1.15;100.00
63903;BME280;50072;50.678;13.938;2023-02-03T03:37:43;100026.66;;;1.16;100.00
63903;BME280;50072;50.678;13.938;2023-02-03T03:40:23;100028.50;;;1.20;100.00
63903;BME280;50072;50.678;13.938;2023-02-03T03:43:11;100037.31;;;1.23;100.00
63903;BME280;50072;50.678;13.938;2023-02-03T03:45:46;100034.72;;;1.24;100.00
63903;BME280;50072;50.678;13.938;2023-02-03T03:48:29;100030.34;;;1.25;100.00
63903;BME280;50072;50.678;13.938;2023-02-03T03:51:18;100026.75;;;1.23;100.00
63903;BME280;50072;50.678;13.938;2023-02-03T03:54:10;100023.28;;;1.24;100.00
63903;BME280;50072;50.678;13.938;2023-02-03T03:59:42;100003.88;;;1.18;100.00
63903;BME280;50072;50.678;13.938;2023-02-03T04:02:22;100005.53;;;1.13;100.00
63903;BME280;50072;50.678;13.938;2023-02-03T04:04:57;100006.50;;;1.18;100.00
63903;BME280;50072;50.678;13.938;2023-02-03T04:07:46;99997.53;;;1.09;100.00
63903;BME280;50072;50.678;13.938;2023-02-03T04:12:52;100007.34;;;1.17;100.00
63903;BME280;50072;50.678;13.938;2023-02-03T04:15:22;99990.56;;;1.12;100.00
63903;BME280;50072;50.678;13.938;2023-02-03T04:17:50;99974.84;;;1.17;100.00
63903;BME280;50072;50.678;13.938;2023-02-03T04:20:23;99968.66;;;1.16;100.00
63903;BME280;50072;50.678;13.938;2023-02-03T04:23:09;99980.13;;;1.17;100.00
63903;BME280;50072;50.678;13.938;2023-02-03T04:25:41;99972.06;;;1.09;100.00
63903;BME280;50072;50.678;13.938;2023-02-03T04:28:09;99954.56;;;1.13;100.00
63903;BME280;50072;50.678;13.938;2023-02-03T04:30:39;99950.81;;;1.00;100.00
63903;BME280;50072;50.678;13.938;2023-02-03T04:33:08;99933.28;;;1.03;100.00
63903;BME280;50072;50.678;13.938;2023-02-03T04:35:41;99916.47;;;0.97;100.00
63903;BME280;50072;50.678;13.938;2023-02-03T04:38:08;99931.47;;;1.01;100.00
63903;BME280;50072;50.678;13.938;2023-02-03T04:40:38;99929.84;;;1.06;100.00
63903;BME280;50072;50.678;13.938;2023-02-03T04:43:10;99943.13;;;1.14;100.00
63903;BME280;50072;50.678;13.938;2023-02-03T04:45:39;99910.53;;;1.07;100.00
63903;BME280;50072;50.678;13.938;2023-02-03T04:48:10;99929.13;;;1.16;100.00
63903;BME280;50072;50.678;13.938;2023-02-03T04:50:42;99910.44;;;1.04;100.00
63903;BME280;50072;50.678;13.938;2023-02-03T04:53:09;99920.19;;;1.08;100.00
63903;BME280;50072;50.678;13.938;2023-02-03T04:55:40;99931.53;;;1.04;100.00
63903;BME280;50072;50.678;13.938;2023-02-03T04:58:09;99914.09;;;1.12;100.00
63903;BME280;50072;50.678;13.938;2023-02-03T05:00:35;99922.81;;;1.08;100.00
63903;BME280;50072;50.678;13.938;2023-02-03T05:03:00;99905.28;;;1.09;100.00
63903;BME280;50072;50.678;13.938;2023-02-03T05:05:26;99910.56;;;1.10;100.00
63903;BME280;50072;50.678;13.938;2023-02-03T05:07:52;99890.38;;;1.12;100.00
63903;BME280;50072;50.678;13.938;2023-02-03T05:10:18;99902.66;;;1.09;100.00
63903;BME280;50072;50.678;13.938;2023-02-03T05:12:45;99897.25;;;1.02;100.00
63903;BME280;50072;50.678;13.938;2023-02-03T05:15:11;99892.16;;;1.12;100.00
63903;BME280;50072;50.678;13.938;2023-02-03T05:17:36;99906.06;;;1.03;100.00
63903;BME280;50072;50.678;13.938;2023-02-03T05:20:05;99899.13;;;1.10;100.00
63903;BME280;50072;50.678;13.938;2023-02-03T05:22:31;99885.00;;;1.05;100.00
63903;BME280;50072;50.678;13.938;2023-02-03T05:24:58;99888.44;;;1.00;100.00
63903;BME280;50072;50.678;13.938;2023-02-03T05:27:24;99865.31;;;0.85;100.00
63903;BME280;50072;50.678;13.938;2023-02-03T05:29:50;99884.75;;;0.91;100.00
63903;BME280;50072;50.678;13.938;2023-02-03T05:32:15;99883.91;;;0.92;100.00
63903;BME280;50072;50.678;13.938;2023-02-03T05:34:41;99861.00;;;0.88;100.00
63903;BME280;50072;50.678;13.938;2023-02-03T05:37:07;99834.63;;;0.86;100.00
63903;BME280;50072;50.678;13.938;2023-02-03T05:39:33;99834.59;;;0.84;100.00
63903;BME280;50072;50.678;13.938;2023-02-03T05:41:59;99829.47;;;0.94;100.00
63903;BME280;50072;50.678;13.938;2023-02-03T05:44:26;99832.97;;;0.93;100.00
63903;BME280;50072;50.678;13.938;2023-02-03T05:46:54;99834.75;;;0.95;100.00
63903;BME280;50072;50.678;13.938;2023-02-03T05:49:20;99806.69;;;0.96;100.00
63903;BME280;50072;50.678;13.938;2023-02-03T05:51:48;99799.72;;;1.01;100.00
63903;BME280;50072;50.678;13.938;2023-02-03T05:54:14;99808.53;;;1.03;100.00
63903;BME280;50072;50.678;13.938;2023-02-03T05:56:40;99810.28;;;1.04;100.00
63903;BME280;50072;50.678;13.938;2023-02-03T05:59:06;99815.53;;;1.01;100.00
63903;BME280;50072;50.678;13.938;2023-02-03T06:01:33;99817.38;;;1.08;100.00
63903;BME280;50072;50.678;13.938;2023-02-03T06:04:00;99815.69;;;1.10;100.00
63903;BME280;50072;50.678;13.938;2023-02-03T06:06:27;99827.00;;;1.05;100.00
63903;BME280;50072;50.678;13.938;2023-02-03T06:09:03;99814.78;;;1.10;100.00
63903;BME280;50072;50.678;13.938;2023-02-03T06:11:30;99810.38;;;1.07;100.00
63903;BME280;50072;50.678;13.938;2023-02-03T06:13:56;99826.25;;;1.12;100.00
63903;BME280;50072;50.678;13.938;2023-02-03T06:16:26;99798.13;;;1.12;100.00
63903;BME280;50072;50.678;13.938;2023-02-03T06:18:54;99821.97;;;1.18;100.00
63903;BME280;50072;50.678;13.938;2023-02-03T06:21:20;99806.91;;;1.11;100.00
63903;BME280;50072;50.678;13.938;2023-02-03T06:23:47;99801.69;;;1.14;100.00
63903;BME280;50072;50.678;13.938;2023-02-03T06:26:14;99792.06;;;1.18;100.00
63903;BME280;50072;50.678;13.938;2023-02-03T06:28:40;99785.97;;;1.20;100.00
63903;BME280;50072;50.678;13.938;2023-02-03T06:31:06;99778.94;;;1.23;100.00
63903;BME280;50072;50.678;13.938;2023-02-03T06:33:33;99770.09;;;1.17;100.00
63903;BME280;50072;50.678;13.938;2023-02-03T06:35:58;99784.00;;;1.07;100.00
63903;BME280;50072;50.678;13.938;2023-02-03T06:38:25;99784.72;;;0.97;100.00
63903;BME280;50072;50.678;13.938;2023-02-03T06:40:51;99780.56;;;1.11;100.00
63903;BME280;50072;50.678;13.938;2023-02-03T06:43:17;99785.88;;;1.14;100.00
63903;BME280;50072;50.678;13.938;2023-02-03T06:45:46;99774.41;;;1.12;100.00
63903;BME280;50072;50.678;13.938;2023-02-03T06:48:22;99751.66;;;1.17;100.00
63903;BME280;50072;50.678;13.938;2023-02-03T06:50:48;99764.91;;;1.25;100.00
63903;BME280;50072;50.678;13.938;2023-02-03T06:53:27;99757.09;;;1.30;100.00
63903;BME280;50072;50.678;13.938;2023-02-03T06:55:55;99781.75;;;1.33;100.00
63903;BME280;50072;50.678;13.938;2023-02-03T06:58:22;99747.44;;;1.32;100.00
63903;BME280;50072;50.678;13.938;2023-02-03T07:00:55;99742.91;;;1.22;100.00
63903;BME280;50072;50.678;13.938;2023-02-03T07:03:32;99742.13;;;1.29;100.00
63903;BME280;50072;50.678;13.938;2023-02-03T07:05:57;99763.16;;;1.24;100.00
63903;BME280;50072;50.678;13.938;2023-02-03T07:08:24;99737.59;;;1.18;100.00
63903;BME280;50072;50.678;13.938;2023-02-03T07:10:54;99762.38;;;1.31;100.00
63903;BME280;50072;50.678;13.938;2023-02-03T07:13:22;99744.88;;;1.36;100.00
63903;BME280;50072;50.678;13.938;2023-02-03T07:15:53;99746.69;;;1.41;100.00
63903;BME280;50072;50.678;13.938;2023-02-03T07:18:20;99755.53;;;1.44;100.00
63903;BME280;50072;50.678;13.938;2023-02-03T07:20:50;99730.13;;;1.52;100.00
63903;BME280;50072;50.678;13.938;2023-02-03T07:23:18;99723.09;;;1.53;100.00
63903;BME280;50072;50.678;13.938;2023-02-03T07:25:47;99728.28;;;1.45;100.00
63903;BME280;50072;50.678;13.938;2023-02-03T07:28:15;99720.41;;;1.48;100.00
63903;BME280;50072;50.678;13.938;2023-02-03T07:30:41;99714.38;;;1.57;100.00
63903;BME280;50072;50.678;13.938;2023-02-03T07:33:07;99700.25;;;1.55;100.00
63903;BME280;50072;50.678;13.938;2023-02-03T07:35:39;99677.31;;;1.48;100.00
63903;BME280;50072;50.678;13.938;2023-02-03T07:38:07;99674.78;;;1.54;100.00
63903;BME280;50072;50.678;13.938;2023-02-03T07:40:39;99687.09;;;1.57;100.00
63903;BME280;50072;50.678;13.938;2023-02-03T07:43:06;99698.56;;;1.59;100.00
63903;BME280;50072;50.678;13.938;2023-02-03T07:45:31;99680.06;;;1.57;100.00
63903;BME280;50072;50.678;13.938;2023-02-03T07:47:59;99687.09;;;1.57;100.00
63903;BME280;50072;50.678;13.938;2023-02-03T07:50:26;99674.81;;;1.59;100.00
63903;BME280;50072;50.678;13.938;2023-02-03T07:52:52;99674.84;;;1.62;100.00
63903;BME280;50072;50.678;13.938;2023-02-03T07:55:18;99673.16;;;1.68;100.00
63903;BME280;50072;50.678;13.938;2023-02-03T07:57:49;99679.38;;;1.73;100.00
63903;BME280;50072;50.678;13.938;2023-02-03T08:00:16;99675.00;;;1.76;100.00
63903;BME280;50072;50.678;13.938;2023-02-03T08:02:50;99663.63;;;1.81;100.00
63903;BME280;50072;50.678;13.938;2023-02-03T08:05:18;99663.72;;;1.90;100.00
63903;BME280;50072;50.678;13.938;2023-02-03T08:07:52;99650.53;;;1.94;100.00
63903;BME280;50072;50.678;13.938;2023-02-03T08:10:20;99662.91;;;1.99;100.00
63903;BME280;50072;50.678;13.938;2023-02-03T08:12:53;99647.06;;;1.99;100.00
63903;BME280;50072;50.678;13.938;2023-02-03T08:15:39;99640.06;;;2.03;100.00
63903;BME280;50072;50.678;13.938;2023-02-03T08:18:12;99634.81;;;2.04;100.00
63903;BME280;50072;50.678;13.938;2023-02-03T08:20:39;99625.97;;;2.01;100.00
63903;BME280;50072;50.678;13.938;2023-02-03T08:23:09;99619.84;;;2.05;100.00
63903;BME280;50072;50.678;13.938;2023-02-03T08:25:38;99623.47;;;2.16;100.00
63903;BME280;50072;50.678;13.938;2023-02-03T08:28:10;99620.94;;;2.29;100.00
63903;BME280;50072;50.678;13.938;2023-02-03T08:30:37;99608.59;;;2.29;100.00
63903;BME280;50072;50.678;13.938;2023-02-03T08:33:09;99595.44;;;2.34;100.00
63903;BME280;50072;50.678;13.938;2023-02-03T08:35:37;99598.13;;;2.41;100.00
63903;BME280;50072;50.678;13.938;2023-02-03T08:38:06;99598.22;;;2.52;100.00
63903;BME280;50072;50.678;13.938;2023-02-03T08:40:37;99612.31;;;2.56;100.00
63903;BME280;50072;50.678;13.938;2023-02-03T08:43:07;99602.63;;;2.56;100.00
63903;BME280;50072;50.678;13.938;2023-02-03T08:45:39;99595.63;;;2.65;100.00
63903;BME280;50072;50.678;13.938;2023-02-03T08:48:07;99596.63;;;2.84;100.00
63903;BME280;50072;50.678;13.938;2023-02-03T08:50:34;99582.63;;;3.09;100.00
63903;BME280;50072;50.678;13.938;2023-02-03T08:53:01;99555.34;;;3.31;100.00
63903;BME280;50072;50.678;13.938;2023-02-03T08:55:30;99580.09;;;3.48;100.00
63903;BME280;50072;50.678;13.938;2023-02-03T08:58:00;99573.06;;;3.69;100.00
63903;BME280;50072;50.678;13.938;2023-02-03T09:00:26;99567.81;;;3.95;100.00
63903;BME280;50072;50.678;13.938;2023-02-03T09:03:10;99566.03;;;4.17;100.00
63903;BME280;50072;50.678;13.938;2023-02-03T09:05:37;99569.53;;;4.41;100.00
63903;BME280;50072;50.678;13.938;2023-02-03T09:08:03;99568.59;;;4.65;100.00
63903;BME280;50072;50.678;13.938;2023-02-03T09:10:35;99560.56;;;4.88;100.00
63903;BME280;50072;50.678;13.938;2023-02-03T09:13:07;99549.84;;;5.10;100.00
63903;BME280;50072;50.678;13.938;2023-02-03T09:15:48;99539.19;;;5.22;100.00
63903;BME280;50072;50.678;13.938;2023-02-03T09:18:23;99548.88;;;5.31;99.65
63903;BME280;50072;50.678;13.938;2023-02-03T09:21:03;99528.41;;;5.50;97.32
63903;BME280;50072;50.678;13.938;2023-02-03T09:23:39;99545.94;;;5.73;96.33
63903;BME280;50072;50.678;13.938;2023-02-03T09:26:09;99534.38;;;5.83;92.76
63903;BME280;50072;50.678;13.938;2023-02-03T09:28:39;99531.63;;;5.92;92.23
63903;BME280;50072;50.678;13.938;2023-02-03T09:31:13;99531.63;;;5.92;93.37
63903;BME280;50072;50.678;13.938;2023-02-03T09:33:53;99516.56;;;5.99;94.01
63903;BME280;50072;50.678;13.938;2023-02-03T09:36:19;99510.34;;;5.97;93.50
63903;BME280;50072;50.678;13.938;2023-02-03T09:38:45;99520.97;;;6.01;93.63
63903;BME280;50072;50.678;13.938;2023-02-03T09:46:58;99501.44;;;6.05;94.74
63903;BME280;50072;50.678;13.938;2023-02-03T09:49:31;99473.06;;;6.11;93.90
63903;BME280;50072;50.678;13.938;2023-02-03T09:52:34;99483.59;;;6.17;93.79
63903;BME280;50072;50.678;13.938;2023-02-03T09:58:16;99449.06;;;6.20;94.95
63903;BME280;50072;50.678;13.938;2023-02-03T10:01:00;99448.06;;;6.30;93.20
63903;BME280;50072;50.678;13.938;2023-02-03T10:04:01;99459.44;;;6.42;92.15
63903;BME280;50072;50.678;13.938;2023-02-03T10:06:43;99453.13;;;6.50;91.50
63903;BME280;50072;50.678;13.938;2023-02-03T10:09:42;99445.03;;;6.60;90.67
63903;BME280;50072;50.678;13.938;2023-02-03T10:18:28;99422.47;;;6.90;88.84
63903;BME280;50072;50.678;13.938;2023-02-03T10:23:53;99410.91;;;6.94;89.73
63903;BME280;50072;50.678;13.938;2023-02-03T10:26:25;99406.31;;;7.02;88.66
63903;BME280;50072;50.678;13.938;2023-02-03T10:28:57;99390.22;;;7.12;88.11
63903;BME280;50072;50.678;13.938;2023-02-03T10:31:31;99376.03;;;7.11;87.70
63903;BME280;50072;50.678;13.938;2023-02-03T10:34:09;99369.81;;;7.12;87.84
63903;BME280;50072;50.678;13.938;2023-02-03T10:39:52;99345.75;;;7.20;86.98
63903;BME280;50072;50.678;13.938;2023-02-03T10:42:21;99334.88;;;7.32;87.56
63903;BME280;50072;50.678;13.938;2023-02-03T10:44:55;99352.63;;;7.32;86.61
63903;BME280;50072;50.678;13.938;2023-02-03T10:48:10;99322.50;;;7.28;85.69
63903;BME280;50072;50.678;13.938;2023-02-03T10:50:34;99310.19;;;7.24;87.06
63903;BME280;50072;50.678;13.938;2023-02-03T10:55:48;99302.28;;;7.18;87.57
63903;BME280;50072;50.678;13.938;2023-02-03T10:58:21;99283.72;;;7.15;88.36
63903;BME280;50072;50.678;13.938;2023-02-03T11:01:14;99274.94;;;7.09;88.40
63903;BME280;50072;50.678;13.938;2023-02-03T11:03:57;99290.88;;;7.13;87.73
63903;BME280;50072;50.678;13.938;2023-02-03T11:06:30;99267.81;;;7.12;88.01
63903;BME280;50072;50.678;13.938;2023-02-03T11:09:31;99279.25;;;7.17;87.62
63903;BME280;50072;50.678;13.938;2023-02-03T11:12:18;99284.56;;;7.18;87.38
63903;BME280;50072;50.678;13.938;2023-02-03T11:14:46;99295.97;;;7.25;88.96
63903;BME280;50072;50.678;13.938;2023-02-03T11:17:36;99284.47;;;7.23;88.45
63903;BME280;50072;50.678;13.938;2023-02-03T11:20:19;99287.78;;;7.36;88.84
63903;BME280;50072;50.678;13.938;2023-02-03T11:23:05;99278.03;;;7.35;87.63
63903;BME280;50072;50.678;13.938;2023-02-03T11:25:32;99295.84;;;7.33;86.59
63903;BME280;50072;50.678;13.938;2023-02-03T11:28:05;99267.38;;;7.36;87.50
63903;BME280;50072;50.678;13.938;2023-02-03T11:30:37;99274.25;;;7.47;87.29
63903;BME280;50072;50.678;13.938;2023-02-03T11:33:17;99278.00;;;7.36;87.34
63903;BME280;50072;50.678;13.938;2023-02-03T11:36:01;99254.00;;;7.39;90.84
63903;BME280;50072;50.678;13.938;2023-02-03T11:38:33;99264.06;;;7.22;91.03
63903;BME280;50072;50.678;13.938;2023-02-03T11:41:05;99257.00;;;7.21;92.76
63903;BME280;50072;50.678;13.938;2023-02-03T11:43:32;99269.47;;;7.19;93.45
63903;BME280;50072;50.678;13.938;2023-02-03T11:46:00;99262.53;;;7.10;94.72
63903;BME280;50072;50.678;13.938;2023-02-03T11:48:31;99243.06;;;7.06;95.49
63903;BME280;50072;50.678;13.938;2023-02-03T11:51:08;99253.63;;;7.11;96.39
63903;BME280;50072;50.678;13.938;2023-02-03T11:56:28;99254.81;;;6.93;95.99
63903;BME280;50072;50.678;13.938;2023-02-03T12:04:55;99274.72;;;6.69;98.73
63903;BME280;50072;50.678;13.938;2023-02-03T12:10:23;99273.88;;;6.65;97.91
63903;BME280;50072;50.678;13.938;2023-02-03T12:13:12;99264.25;;;6.58;100.00
63903;BME280;50072;50.678;13.938;2023-02-03T12:16:03;99272.41;;;6.46;99.06
63903;BME280;50072;50.678;13.938;2023-02-03T12:21:44;99280.63;;;6.29;100.00
63903;BME280;50072;50.678;13.938;2023-02-03T12:24:42;99267.53;;;6.15;100.00
63903;BME280;50072;50.678;13.938;2023-02-03T12:29:57;99262.31;;;6.09;100.00
63903;BME280;50072;50.678;13.938;2023-02-03T12:32:35;99244.66;;;6.04;100.00
63903;BME280;50072;50.678;13.938;2023-02-03T12:41:36;99195.28;;;5.86;100.00
63903;BME280;50072;50.678;13.938;2023-02-03T12:44:19;99211.19;;;5.88;100.00
63903;BME280;50072;50.678;13.938;2023-02-03T12:47:10;99171.34;;;5.88;100.00
63903;BME280;50072;50.678;13.938;2023-02-03T12:49:45;99167.81;;;5.89;100.00
63903;BME280;50072;50.678;13.938;2023-02-03T12:52:25;99168.63;;;5.91;100.00
63903;BME280;50072;50.678;13.938;2023-02-03T12:54:57;99173.91;;;5.94;100.00
63903;BME280;50072;50.678;13.938;2023-02-03T12:57:42;99187.16;;;6.00;100.00
63903;BME280;50072;50.678;13.938;2023-02-03T13:02:55;99210.16;;;6.01;100.00
63903;BME280;50072;50.678;13.938;2023-02-03T13:05:29;99250.00;;;5.97;100.00
63903;BME280;50072;50.678;13.938;2023-02-03T13:08:08;99229.69;;;5.96;100.00
63903;BME280;50072;50.678;13.938;2023-02-03T13:10:49;99234.16;;;5.92;100.00
63903;BME280;50072;50.678;13.938;2023-02-03T13:13:26;99237.69;;;5.91;100.00
63903;BME280;50072;50.678;13.938;2023-02-03T13:15:55;99222.59;;;5.96;99.74
63903;BME280;50072;50.678;13.938;2023-02-03T13:18:35;99250.00;;;6.00;99.65
63903;BME280;50072;50.678;13.938;2023-02-03T13:21:01;99227.78;;;6.05;98.59
63903;BME280;50072;50.678;13.938;2023-02-03T13:23:27;99232.13;;;6.13;97.54
63903;BME280;50072;50.678;13.938;2023-02-03T13:31:56;99210.06;;;6.08;100.00
63903;BME280;50072;50.678;13.938;2023-02-03T13:34:47;99197.75;;;6.02;100.00
63903;BME280;50072;50.678;13.938;2023-02-03T13:42:47;99177.53;;;5.87;100.00
63903;BME280;50072;50.678;13.938;2023-02-03T13:45:27;99184.63;;;5.88;100.00
63903;BME280;50072;50.678;13.938;2023-02-03T13:48:13;99177.47;;;5.93;100.00
63903;BME280;50072;50.678;13.938;2023-02-03T13:50:41;99188.97;;;5.94;100.00
63903;BME280;50072;50.678;13.938;2023-02-03T13:53:20;99184.56;;;5.91;100.00
63903;BME280;50072;50.678;13.938;2023-02-03T13:56:21;99198.69;;;5.96;100.00
63903;BME280;50072;50.678;13.938;2023-02-03T14:01:39;99199.00;;;6.35;100.00
63903;BME280;50072;50.678;13.938;2023-02-03T14:07:00;99235.84;;;6.62;100.00
63903;BME280;50072;50.678;13.938;2023-02-03T14:09:39;99242.81;;;6.69;99.82
63903;BME280;50072;50.678;13.938;2023-02-03T14:14:43;99288.25;;;5.85;100.00
63903;BME280;50072;50.678;13.938;2023-02-03T14:23:15;99311.25;;;4.94;100.00
63903;BME280;50072;50.678;13.938;2023-02-03T14:25:50;99327.25;;;4.83;100.00
63903;BME280;50072;50.678;13.938;2023-02-03T14:28:36;99316.69;;;4.76;100.00
63903;BME280;50072;50.678;13.938;2023-02-03T14:31:20;99293.75;;;4.72;100.00
63903;BME280;50072;50.678;13.938;2023-02-03T14:33:54;99318.41;;;4.84;98.87
63903;BME280;50072;50.678;13.938;2023-02-03T14:36:51;99306.84;;;4.90;98.02
63903;BME280;50072;50.678;13.938;2023-02-03T14:39:40;99297.06;;;5.00;98.95
63903;BME280;50072;50.678;13.938;2023-02-03T14:42:49;99307.66;;;5.03;97.23
63903;BME280;50072;50.678;13.938;2023-02-03T14:48:33;99328.78;;;5.14;94.59
63903;BME280;50072;50.678;13.938;2023-02-03T14:57:47;99335.97;;;4.99;93.03
63903;BME280;50072;50.678;13.938;2023-02-03T15:11:30;99339.34;;;5.22;88.66
63903;BME280;50072;50.678;13.938;2023-02-03T15:14:26;99358.78;;;5.21;88.64
63903;BME280;50072;50.678;13.938;2023-02-03T15:17:26;99369.38;;;5.25;87.39
63903;BME280;50072;50.678;13.938;2023-02-03T15:19:53;99366.66;;;5.30;86.08
63903;BME280;50072;50.678;13.938;2023-02-03T15:22:25;99379.84;;;5.41;83.48
63903;BME280;50072;50.678;13.938;2023-02-03T15:25:15;99370.09;;;5.43;84.75
63903;BME280;50072;50.678;13.938;2023-02-03T15:27:45;99355.09;;;5.42;85.20
63903;BME280;50072;50.678;13.938;2023-02-03T15:30:24;99339.09;;;5.46;84.28
63903;BME280;50072;50.678;13.938;2023-02-03T15:33:30;99364.84;;;5.36;84.41
63903;BME280;50072;50.678;13.938;2023-02-03T15:36:18;99379.09;;;5.25;84.85